KOTH

Southwest Oregon Regional Airport

North Bend, Oregon, USA
KOTH 162338Z 1700/1724 35018G25KT P6SM FEW008 FM170400 35009KT 5SM BR OVC005 FM171000 01004KT 1/2SM FG OVC002 FM171600 35009KT 3SM BR OVC004 FM172000 35016G25KT P6SM SKC
Issued Valid From Valid To
Jul-16 @ 23:38 UTC
(49 minutes ago)
Jul-17 @ 00:00 UTC
(27 minutes ago)
Jul-18 @ 00:00 UTC
(in 24 hours)
Jul-17 @ 00:00 to Jul-17 @ 04:00
KOTH 162338Z 1700/1724 35018G25KT P6SM FEW008
Wind Visibility Clouds
350° at 18 knots
 Gusting to 25 knots
Greater than 6 miles
  • Few at 800' AGL
From Jul-17 @ 04:00 to Jul-17 @ 10:00
FM170400 35009KT 5SM BR OVC005
Wind Visibility Clouds Conditions
350° at 9 knots 5 miles
  • Overcast at 500' AGL
  • Mist
From Jul-17 @ 10:00 to Jul-17 @ 16:00
FM171000 01004KT 1/2SM FG OVC002
Wind Visibility Clouds Conditions
10° at 4 knots 1/2 miles
  • Overcast at 200' AGL
  • Fog
From Jul-17 @ 16:00 to Jul-17 @ 20:00
FM171600 35009KT 3SM BR OVC004
Wind Visibility Clouds Conditions
350° at 9 knots 3 miles
  • Overcast at 400' AGL
  • Mist
From Jul-17 @ 20:00 to Jul-18 @ 00:00
FM172000 35016G25KT P6SM SKC
Wind Visibility Clouds
350° at 16 knots
 Gusting to 25 knots
Greater than 6 miles
  • Clear skies
KOTH 162338Z 1700/1724 35018G25KT P6SM FEW008 FM170400 35009KT 5SM BR OVC005 FM171000 01004KT 1/2SM FG OVC002 FM171600 35009KT 3SM BR OVC004 FM172000 35016G25KT P6SM SKC
Issued Jul-16 @ 23:38 UTC
(49 minutes ago)
Valid From Jul-17 @ 00:00 UTC
(27 minutes ago)
Valid To Jul-18 @ 00:00 UTC
(in 24 hours)
Jul-17 @ 00:00 - Jul-17 @ 04:00
Wind Visibility
350° at 18 knots
 Gusting to 25 knots
Greater than 6 miles
Clouds
  • Few at 800' AGL
From Jul-17 @ 04:00 - Jul-17 @ 10:00
Wind Visibility
350° at 9 knots 5 miles
Clouds
  • Overcast at 500' AGL
Conditions
  • Mist
From Jul-17 @ 10:00 - Jul-17 @ 16:00
Wind Visibility
10° at 4 knots 1/2 miles
Clouds
  • Overcast at 200' AGL
Conditions
  • Fog
From Jul-17 @ 16:00 - Jul-17 @ 20:00
Wind Visibility
350° at 9 knots 3 miles
Clouds
  • Overcast at 400' AGL
Conditions
  • Mist
From Jul-17 @ 20:00 - Jul-18 @ 00:00
Wind Visibility
350° at 16 knots
 Gusting to 25 knots
Greater than 6 miles
Clouds
  • Clear skies